sensor_id;sensor_type;location;lat;lon;timestamp;pressure;altitude;pressure_sealevel;temperature;humidity
76114;BME280;64845;53.086;5.834;2023-06-26T00:02:10;101135.34;;;23.39;57.66
76114;BME280;64845;53.086;5.834;2023-06-26T00:04:36;101136.47;;;23.37;57.69
76114;BME280;64845;53.086;5.834;2023-06-26T00:07:03;101130.44;;;23.33;57.91
76114;BME280;64845;53.086;5.834;2023-06-26T00:09:29;101129.00;;;23.29;58.23
76114;BME280;64845;53.086;5.834;2023-06-26T00:11:54;101124.66;;;23.27;58.19
76114;BME280;64845;53.086;5.834;2023-06-26T00:14:20;101124.81;;;23.25;57.91
76114;BME280;64845;53.086;5.834;2023-06-26T00:16:46;101115.06;;;23.22;58.05
76114;BME280;64845;53.086;5.834;2023-06-26T00:19:12;101109.72;;;23.21;58.22
76114;BME280;64845;53.086;5.834;2023-06-26T00:21:37;101110.69;;;23.20;58.37
76114;BME280;64845;53.086;5.834;2023-06-26T00:24:02;101103.50;;;23.19;58.36
76114;BME280;64845;53.086;5.834;2023-06-26T00:26:28;101098.06;;;23.19;58.37
76114;BME280;64845;53.086;5.834;2023-06-26T00:28:53;101097.34;;;23.17;58.62
76114;BME280;64845;53.086;5.834;2023-06-26T00:31:19;101099.22;;;23.16;58.62
76114;BME280;64845;53.086;5.834;2023-06-26T00:33:44;101093.88;;;23.15;58.54
76114;BME280;64845;53.086;5.834;2023-06-26T00:36:10;101089.56;;;23.12;58.38
76114;BME280;64845;53.086;5.834;2023-06-26T00:38:35;101088.72;;;23.12;58.90
76114;BME280;64845;53.086;5.834;2023-06-26T00:41:00;101085.28;;;23.09;58.74
76114;BME280;64845;53.086;5.834;2023-06-26T00:43:26;101081.66;;;23.09;59.00
76114;BME280;64845;53.086;5.834;2023-06-26T00:45:51;101079.94;;;23.08;58.93
76114;BME280;64845;53.086;5.834;2023-06-26T00:48:17;101080.09;;;23.06;58.93
76114;BME280;64845;53.086;5.834;2023-06-26T00:50:43;101076.50;;;23.06;59.04
76114;BME280;64845;53.086;5.834;2023-06-26T00:53:12;101079.38;;;23.04;59.11
76114;BME280;64845;53.086;5.834;2023-06-26T00:55:37;101076.78;;;23.03;58.79
76114;BME280;64845;53.086;5.834;2023-06-26T00:58:03;101078.78;;;23.01;59.15
76114;BME280;64845;53.086;5.834;2023-06-26T01:00:28;101086.06;;;23.00;59.12
76114;BME280;64845;53.086;5.834;2023-06-26T01:02:54;101081.03;;;22.96;59.31
76114;BME280;64845;53.086;5.834;2023-06-26T01:05:25;101075.88;;;22.92;59.42
76114;BME280;64845;53.086;5.834;2023-06-26T01:07:50;101073.41;;;22.89;59.09
76114;BME280;64845;53.086;5.834;2023-06-26T01:10:16;101070.09;;;22.86;59.55
76114;BME280;64845;53.086;5.834;2023-06-26T01:12:42;101061.34;;;22.82;59.30
76114;BME280;64845;53.086;5.834;2023-06-26T01:15:08;101066.06;;;22.80;59.39
76114;BME280;64845;53.086;5.834;2023-06-26T01:17:37;101059.00;;;22.77;59.67
76114;BME280;64845;53.086;5.834;2023-06-26T01:20:04;101069.31;;;22.74;59.67
76114;BME280;64845;53.086;5.834;2023-06-26T01:22:39;101062.41;;;22.70;59.91
76114;BME280;64845;53.086;5.834;2023-06-26T01:28:05;101064.22;;;22.59;59.95
76114;BME280;64845;53.086;5.834;2023-06-26T01:30:38;101064.47;;;22.56;60.18
76114;BME280;64845;53.086;5.834;2023-06-26T01:33:05;101067.72;;;22.50;60.34
76114;BME280;64845;53.086;5.834;2023-06-26T01:35:31;101071.84;;;22.44;60.23
76114;BME280;64845;53.086;5.834;2023-06-26T01:40:38;101078.56;;;22.29;60.72
76114;BME280;64845;53.086;5.834;2023-06-26T01:43:06;101072.63;;;22.24;60.98
76114;BME280;64845;53.086;5.834;2023-06-26T01:45:35;101070.31;;;22.19;60.92
76114;BME280;64845;53.086;5.834;2023-06-26T01:48:03;101068.00;;;22.14;61.22
76114;BME280;64845;53.086;5.834;2023-06-26T01:50:31;101072.81;;;22.11;61.56
76114;BME280;64845;53.086;5.834;2023-06-26T01:53:09;101077.78;;;22.06;61.57
76114;BME280;64845;53.086;5.834;2023-06-26T01:58:01;101074.09;;;21.95;62.20
76114;BME280;64845;53.086;5.834;2023-06-26T02:00:27;101080.94;;;21.89;62.17
76114;BME280;64845;53.086;5.834;2023-06-26T02:02:54;101080.44;;;21.84;62.41
76114;BME280;64845;53.086;5.834;2023-06-26T02:05:19;101077.97;;;21.81;62.64
76114;BME280;64845;53.086;5.834;2023-06-26T02:07:44;101062.91;;;21.77;63.06
76114;BME280;64845;53.086;5.834;2023-06-26T02:10:10;101060.31;;;21.76;63.28
76114;BME280;64845;53.086;5.834;2023-06-26T02:12:36;101069.59;;;21.73;63.36
76114;BME280;64845;53.086;5.834;2023-06-26T02:15:03;101055.28;;;21.71;63.65
76114;BME280;64845;53.086;5.834;2023-06-26T02:17:29;101059.84;;;21.70;63.71
76114;BME280;64845;53.086;5.834;2023-06-26T02:19:54;101063.28;;;21.72;63.48
76114;BME280;64845;53.086;5.834;2023-06-26T02:22:20;101060.47;;;21.74;63.81
76114;BME280;64845;53.086;5.834;2023-06-26T02:24:45;101072.94;;;21.77;63.45
76114;BME280;64845;53.086;5.834;2023-06-26T02:27:11;101070.22;;;21.77;63.72
76114;BME280;64845;53.086;5.834;2023-06-26T02:29:36;101069.22;;;21.78;63.43
76114;BME280;64845;53.086;5.834;2023-06-26T02:32:02;101081.94;;;21.77;63.45
76114;BME280;64845;53.086;5.834;2023-06-26T02:34:27;101079.22;;;21.77;62.75
76114;BME280;64845;53.086;5.834;2023-06-26T02:36:53;101093.94;;;21.74;63.05
76114;BME280;64845;53.086;5.834;2023-06-26T02:39:21;101100.75;;;21.69;62.91
76114;BME280;64845;53.086;5.834;2023-06-26T02:41:47;101096.78;;;21.62;63.20
76114;BME280;64845;53.086;5.834;2023-06-26T02:44:12;101086.28;;;21.57;63.18
76114;BME280;64845;53.086;5.834;2023-06-26T02:46:39;101084.78;;;21.53;63.01
76114;BME280;64845;53.086;5.834;2023-06-26T02:49:05;101087.88;;;21.48;63.00
76114;BME280;64845;53.086;5.834;2023-06-26T02:51:32;101085.66;;;21.42;63.44
76114;BME280;64845;53.086;5.834;2023-06-26T02:53:57;101076.03;;;21.38;63.43
76114;BME280;64845;53.086;5.834;2023-06-26T02:56:23;101078.13;;;21.34;63.62
76114;BME280;64845;53.086;5.834;2023-06-26T02:58:48;101079.66;;;21.27;63.95
76114;BME280;64845;53.086;5.834;2023-06-26T03:01:13;101080.97;;;21.21;63.71
76114;BME280;64845;53.086;5.834;2023-06-26T03:03:41;101074.09;;;21.17;64.19
76114;BME280;64845;53.086;5.834;2023-06-26T03:06:07;101072.59;;;21.13;64.43
76114;BME280;64845;53.086;5.834;2023-06-26T03:08:35;101075.94;;;21.05;64.79
76114;BME280;64845;53.086;5.834;2023-06-26T03:11:01;101075.66;;;20.97;64.73
76114;BME280;64845;53.086;5.834;2023-06-26T03:13:26;101087.00;;;20.91;64.97
76114;BME280;64845;53.086;5.834;2023-06-26T03:15:52;101076.75;;;20.83;65.23
76114;BME280;64845;53.086;5.834;2023-06-26T03:18:17;101085.41;;;20.77;65.50
76114;BME280;64845;53.086;5.834;2023-06-26T03:20:42;101084.84;;;20.72;65.69
76114;BME280;64845;53.086;5.834;2023-06-26T03:23:08;101097.66;;;20.69;65.91
76114;BME280;64845;53.086;5.834;2023-06-26T03:25:33;101101.72;;;20.64;65.99
76114;BME280;64845;53.086;5.834;2023-06-26T03:27:58;101099.50;;;20.58;66.58
76114;BME280;64845;53.086;5.834;2023-06-26T03:30:24;101095.41;;;20.52;66.77
76114;BME280;64845;53.086;5.834;2023-06-26T03:32:49;101097.59;;;20.47;67.14
76114;BME280;64845;53.086;5.834;2023-06-26T03:35:15;101083.28;;;20.45;67.42
76114;BME280;64845;53.086;5.834;2023-06-26T03:37:40;101084.16;;;20.45;67.77
76114;BME280;64845;53.086;5.834;2023-06-26T03:40:06;101097.34;;;20.38;67.66
76114;BME280;64845;53.086;5.834;2023-06-26T03:42:31;101107.53;;;20.35;67.87
76114;BME280;64845;53.086;5.834;2023-06-26T03:44:57;101119.84;;;20.28;68.05
76114;BME280;64845;53.086;5.834;2023-06-26T03:47:22;101114.13;;;20.19;68.72
76114;BME280;64845;53.086;5.834;2023-06-26T03:49:47;101111.03;;;20.13;68.96
76114;BME280;64845;53.086;5.834;2023-06-26T03:52:13;101116.28;;;20.03;69.62
76114;BME280;64845;53.086;5.834;2023-06-26T03:54:38;101109.69;;;19.94;70.02
76114;BME280;64845;53.086;5.834;2023-06-26T03:57:04;101123.03;;;19.84;70.32
76114;BME280;64845;53.086;5.834;2023-06-26T03:59:29;101127.16;;;19.77;70.65
76114;BME280;64845;53.086;5.834;2023-06-26T04:01:55;101131.19;;;19.71;71.21
76114;BME280;64845;53.086;5.834;2023-06-26T04:04:20;101109.84;;;19.67;71.46
76114;BME280;64845;53.086;5.834;2023-06-26T04:06:45;101112.03;;;19.61;71.80
76114;BME280;64845;53.086;5.834;2023-06-26T04:09:11;101120.59;;;19.55;71.94
76114;BME280;64845;53.086;5.834;2023-06-26T04:11:36;101125.38;;;19.52;72.39
76114;BME280;64845;53.086;5.834;2023-06-26T04:14:02;101136.56;;;19.47;72.60
76114;BME280;64845;53.086;5.834;2023-06-26T04:16:28;101140.44;;;19.43;72.66
76114;BME280;64845;53.086;5.834;2023-06-26T04:18:54;101151.50;;;19.40;72.54
76114;BME280;64845;53.086;5.834;2023-06-26T04:21:21;101154.41;;;19.37;72.77
76114;BME280;64845;53.086;5.834;2023-06-26T04:23:49;101160.81;;;19.36;72.78
76114;BME280;64845;53.086;5.834;2023-06-26T04:26:14;101141.75;;;19.37;72.74
76114;BME280;64845;53.086;5.834;2023-06-26T04:28:40;101142.63;;;19.38;72.61
76114;BME280;64845;53.086;5.834;2023-06-26T04:31:06;101141.63;;;19.39;72.55
76114;BME280;64845;53.086;5.834;2023-06-26T04:33:32;101146.22;;;19.38;72.46
76114;BME280;64845;53.086;5.834;2023-06-26T04:35:57;101173.16;;;19.40;72.37
76114;BME280;64845;53.086;5.834;2023-06-26T04:38:22;101171.22;;;19.42;72.28
76114;BME280;64845;53.086;5.834;2023-06-26T04:40:48;101192.66;;;19.45;72.38
76114;BME280;64845;53.086;5.834;2023-06-26T04:43:14;101224.19;;;19.46;72.34
76114;BME280;64845;53.086;5.834;2023-06-26T04:45:40;101227.00;;;19.44;72.36
76114;BME280;64845;53.086;5.834;2023-06-26T04:48:05;101228.72;;;19.45;72.23
76114;BME280;64845;53.086;5.834;2023-06-26T04:50:34;101201.75;;;19.44;72.23
76114;BME280;64845;53.086;5.834;2023-06-26T04:53:00;101197.44;;;19.41;71.88
76114;BME280;64845;53.086;5.834;2023-06-26T04:55:26;101224.72;;;19.38;71.76
76114;BME280;64845;53.086;5.834;2023-06-26T04:57:51;101218.13;;;19.29;71.44
76114;BME280;64845;53.086;5.834;2023-06-26T05:00:17;101222.00;;;19.25;71.46
76114;BME280;64845;53.086;5.834;2023-06-26T05:02:43;101217.56;;;19.24;71.47
76114;BME280;64845;53.086;5.834;2023-06-26T05:05:09;101223.84;;;19.25;71.22
76114;BME280;64845;53.086;5.834;2023-06-26T05:07:35;101217.66;;;19.23;71.33
76114;BME280;64845;53.086;5.834;2023-06-26T05:10:01;101226.66;;;19.23;71.07
76114;BME280;64845;53.086;5.834;2023-06-26T05:12:26;101228.41;;;19.24;71.17
76114;BME280;64845;53.086;5.834;2023-06-26T05:14:51;101230.91;;;19.27;70.95
76114;BME280;64845;53.086;5.834;2023-06-26T05:17:17;101228.97;;;19.29;70.88
76114;BME280;64845;53.086;5.834;2023-06-26T05:19:42;101228.72;;;19.32;70.68
76114;BME280;64845;53.086;5.834;2023-06-26T05:22:08;101227.75;;;19.33;70.84
76114;BME280;64845;53.086;5.834;2023-06-26T05:24:38;101225.78;;;19.36;70.64
76114;BME280;64845;53.086;5.834;2023-06-26T05:27:04;101230.38;;;19.35;70.15
76114;BME280;64845;53.086;5.834;2023-06-26T05:29:33;101228.63;;;19.34;70.05
76114;BME280;64845;53.086;5.834;2023-06-26T05:31:59;101241.28;;;19.33;70.01
76114;BME280;64845;53.086;5.834;2023-06-26T05:34:25;101240.63;;;19.30;70.03
76114;BME280;64845;53.086;5.834;2023-06-26T05:37:00;101240.75;;;19.28;70.01
76114;BME280;64845;53.086;5.834;2023-06-26T05:39:27;101250.91;;;19.25;69.78
76114;BME280;64845;53.086;5.834;2023-06-26T05:41:52;101250.06;;;19.24;69.60
76114;BME280;64845;53.086;5.834;2023-06-26T05:44:18;101260.00;;;19.24;69.77
76114;BME280;64845;53.086;5.834;2023-06-26T05:46:45;101258.19;;;19.24;69.70
76114;BME280;64845;53.086;5.834;2023-06-26T05:49:11;101257.22;;;19.25;69.40
76114;BME280;64845;53.086;5.834;2023-06-26T05:51:36;101274.88;;;19.31;69.45
76114;BME280;64845;53.086;5.834;2023-06-26T05:54:02;101267.31;;;19.36;69.38
76114;BME280;64845;53.086;5.834;2023-06-26T05:56:28;101274.44;;;19.37;69.14
76114;BME280;64845;53.086;5.834;2023-06-26T05:58:54;101271.63;;;19.39;68.81
76114;BME280;64845;53.086;5.834;2023-06-26T06:01:20;101285.81;;;19.42;68.49
76114;BME280;64845;53.086;5.834;2023-06-26T06:03:45;101288.22;;;19.47;68.41
76114;BME280;64845;53.086;5.834;2023-06-26T06:06:11;101290.03;;;19.46;68.24
76114;BME280;64845;53.086;5.834;2023-06-26T06:08:37;101290.16;;;19.45;67.77
76114;BME280;64845;53.086;5.834;2023-06-26T06:11:05;101299.06;;;19.47;67.59
76114;BME280;64845;53.086;5.834;2023-06-26T06:16:26;101315.19;;;19.48;67.40
76114;BME280;64845;53.086;5.834;2023-06-26T06:18:54;101322.91;;;19.55;67.27
76114;BME280;64845;53.086;5.834;2023-06-26T06:21:19;101327.22;;;19.57;67.10
76114;BME280;64845;53.086;5.834;2023-06-26T06:23:44;101334.03;;;19.63;66.79
76114;BME280;64845;53.086;5.834;2023-06-26T06:26:10;101335.69;;;19.66;66.23
76114;BME280;64845;53.086;5.834;2023-06-26T06:28:36;101347.59;;;19.63;66.13
76114;BME280;64845;53.086;5.834;2023-06-26T06:31:01;101341.19;;;19.64;66.04
76114;BME280;64845;53.086;5.834;2023-06-26T06:33:27;101350.97;;;19.67;66.14
76114;BME280;64845;53.086;5.834;2023-06-26T06:35:52;101360.72;;;19.69;65.87
76114;BME280;64845;53.086;5.834;2023-06-26T06:38:17;101371.22;;;19.74;65.63
76114;BME280;64845;53.086;5.834;2023-06-26T06:40:43;101378.50;;;19.73;65.37
76114;BME280;64845;53.086;5.834;2023-06-26T06:43:08;101377.09;;;19.68;64.86
76114;BME280;64845;53.086;5.834;2023-06-26T06:45:33;101389.88;;;19.66;64.73
76114;BME280;64845;53.086;5.834;2023-06-26T06:47:59;101381.63;;;19.67;64.62
76114;BME280;64845;53.086;5.834;2023-06-26T06:50:24;101375.88;;;19.72;64.40
76114;BME280;64845;53.086;5.834;2023-06-26T06:52:49;101383.72;;;19.76;64.44
76114;BME280;64845;53.086;5.834;2023-06-26T06:55:15;101390.66;;;19.81;64.24
76114;BME280;64845;53.086;5.834;2023-06-26T06:57:40;101390.34;;;19.85;64.51
76114;BME280;64845;53.086;5.834;2023-06-26T07:00:08;101385.72;;;19.87;64.40
76114;BME280;64845;53.086;5.834;2023-06-26T07:02:38;101401.84;;;19.89;64.31
76114;BME280;64845;53.086;5.834;2023-06-26T07:05:04;101405.97;;;19.95;64.49
76114;BME280;64845;53.086;5.834;2023-06-26T07:07:31;101395.69;;;20.00;64.39
76114;BME280;64845;53.086;5.834;2023-06-26T07:10:04;101413.47;;;20.04;64.53
76114;BME280;64845;53.086;5.834;2023-06-26T07:12:30;101405.22;;;20.05;64.25
76114;BME280;64845;53.086;5.834;2023-06-26T07:14:56;101406.63;;;20.11;64.21
76114;BME280;64845;53.086;5.834;2023-06-26T07:17:22;101426.28;;;20.15;64.43
76114;BME280;64845;53.086;5.834;2023-06-26T07:19:49;101420.72;;;20.16;64.21
76114;BME280;64845;53.086;5.834;2023-06-26T07:22:14;101428.66;;;20.19;63.86
76114;BME280;64845;53.086;5.834;2023-06-26T07:24:40;101432.13;;;20.21;64.06
76114;BME280;64845;53.086;5.834;2023-06-26T07:27:05;101431.16;;;20.22;63.85
76114;BME280;64845;53.086;5.834;2023-06-26T07:29:30;101429.97;;;20.27;63.70
76114;BME280;64845;53.086;5.834;2023-06-26T07:31:56;101434.19;;;20.31;63.94
76114;BME280;64845;53.086;5.834;2023-06-26T07:34:21;101449.16;;;20.36;63.90
76114;BME280;64845;53.086;5.834;2023-06-26T07:36:47;101444.38;;;20.40;63.89
76114;BME280;64845;53.086;5.834;2023-06-26T07:39:12;101447.75;;;20.44;63.68
76114;BME280;64845;53.086;5.834;2023-06-26T07:41:37;101445.78;;;20.46;63.62
76114;BME280;64845;53.086;5.834;2023-06-26T07:44:03;101448.50;;;20.46;63.61
76114;BME280;64845;53.086;5.834;2023-06-26T07:46:28;101459.25;;;20.47;63.34
76114;BME280;64845;53.086;5.834;2023-06-26T07:48:54;101462.41;;;20.41;63.41
76114;BME280;64845;53.086;5.834;2023-06-26T07:51:20;101461.75;;;20.37;63.59
76114;BME280;64845;53.086;5.834;2023-06-26T07:53:46;101460.78;;;20.38;63.29
76114;BME280;64845;53.086;5.834;2023-06-26T07:56:11;101469.22;;;20.47;63.50
76114;BME280;64845;53.086;5.834;2023-06-26T07:58:37;101472.72;;;20.49;63.51
76114;BME280;64845;53.086;5.834;2023-06-26T08:01:02;101484.53;;;20.48;63.19
76114;BME280;64845;53.086;5.834;2023-06-26T08:03:28;101468.03;;;20.38;62.86
76114;BME280;64845;53.086;5.834;2023-06-26T08:05:53;101483.66;;;20.34;62.94
76114;BME280;64845;53.086;5.834;2023-06-26T08:08:19;101468.25;;;20.35;62.67
76114;BME280;64845;53.086;5.834;2023-06-26T08:10:44;101481.50;;;20.40;62.58
76114;BME280;64845;53.086;5.834;2023-06-26T08:13:09;101478.69;;;20.41;62.94
76114;BME280;64845;53.086;5.834;2023-06-26T08:15:35;101484.94;;;20.42;62.79
76114;BME280;64845;53.086;5.834;2023-06-26T08:18:00;101493.09;;;20.42;62.55
76114;BME280;64845;53.086;5.834;2023-06-26T08:20:25;101483.13;;;20.42;62.52
76114;BME280;64845;53.086;5.834;2023-06-26T08:22:51;101502.75;;;20.46;62.37
76114;BME280;64845;53.086;5.834;2023-06-26T08:25:17;101506.44;;;20.45;62.19
76114;BME280;64845;53.086;5.834;2023-06-26T08:27:43;101504.28;;;20.50;62.32
76114;BME280;64845;53.086;5.834;2023-06-26T08:30:09;101511.13;;;20.56;62.59
76114;BME280;64845;53.086;5.834;2023-06-26T08:32:34;101513.75;;;20.57;62.37
76114;BME280;64845;53.086;5.834;2023-06-26T08:35:00;101497.75;;;20.65;62.20
76114;BME280;64845;53.086;5.834;2023-06-26T08:37:25;101497.34;;;20.72;61.87
76114;BME280;64845;53.086;5.834;2023-06-26T08:39:50;101508.81;;;20.75;62.09
76114;BME280;64845;53.086;5.834;2023-06-26T08:42:16;101517.94;;;20.74;62.00
76114;BME280;64845;53.086;5.834;2023-06-26T08:44:42;101522.59;;;20.72;62.17
76114;BME280;64845;53.086;5.834;2023-06-26T08:47:07;101531.13;;;20.80;62.33
76114;BME280;64845;53.086;5.834;2023-06-26T08:49:51;101536.53;;;20.93;62.10
76114;BME280;64845;53.086;5.834;2023-06-26T08:52:24;101541.84;;;20.95;61.97
76114;BME280;64845;53.086;5.834;2023-06-26T08:54:58;101540.00;;;20.95;61.64
76114;BME280;64845;53.086;5.834;2023-06-26T08:57:25;101545.75;;;20.91;61.51
76114;BME280;64845;53.086;5.834;2023-06-26T08:59:52;101541.75;;;20.83;61.42
76114;BME280;64845;53.086;5.834;2023-06-26T09:02:18;101545.44;;;20.82;61.55
76114;BME280;64845;53.086;5.834;2023-06-26T09:04:43;101555.41;;;20.82;61.31
76114;BME280;64845;53.086;5.834;2023-06-26T09:07:09;101555.66;;;20.79;61.34
76114;BME280;64845;53.086;5.834;2023-06-26T09:09:35;101552.50;;;20.85;61.30
76114;BME280;64845;53.086;5.834;2023-06-26T09:12:02;101550.97;;;20.94;61.25
76114;BME280;64845;53.086;5.834;2023-06-26T09:14:29;101549.00;;;20.96;61.07
76114;BME280;64845;53.086;5.834;2023-06-26T09:16:54;101563.78;;;20.92;60.68
76114;BME280;64845;53.086;5.834;2023-06-26T09:19:20;101568.22;;;20.93;60.87
76114;BME280;64845;53.086;5.834;2023-06-26T09:21:49;101568.34;;;20.91;60.67
76114;BME280;64845;53.086;5.834;2023-06-26T09:24:15;101560.75;;;20.96;60.89
76114;BME280;64845;53.086;5.834;2023-06-26T09:26:41;101564.13;;;21.00;61.00
76114;BME280;64845;53.086;5.834;2023-06-26T09:29:07;101581.16;;;21.02;61.04
76114;BME280;64845;53.086;5.834;2023-06-26T09:31:33;101578.75;;;21.10;60.86
76114;BME280;64845;53.086;5.834;2023-06-26T09:34:01;101574.63;;;21.18;60.58
76114;BME280;64845;53.086;5.834;2023-06-26T09:36:29;101575.91;;;21.25;60.57
76114;BME280;64845;53.086;5.834;2023-06-26T09:39:06;101582.97;;;21.27;60.59
76114;BME280;64845;53.086;5.834;2023-06-26T09:41:37;101579.28;;;21.28;60.26
76114;BME280;64845;53.086;5.834;2023-06-26T09:44:06;101581.78;;;21.19;60.07
76114;BME280;64845;53.086;5.834;2023-06-26T09:46:33;101594.94;;;21.12;60.44
76114;BME280;64845;53.086;5.834;2023-06-26T09:49:02;101602.00;;;21.02;60.27
76114;BME280;64845;53.086;5.834;2023-06-26T09:51:32;101599.53;;;20.98;60.32
76114;BME280;64845;53.086;5.834;2023-06-26T09:53:59;101599.97;;;21.05;60.33
76114;BME280;64845;53.086;5.834;2023-06-26T09:56:25;101614.16;;;21.22;60.02
76114;BME280;64845;53.086;5.834;2023-06-26T09:58:51;101609.16;;;21.28;59.87
76114;BME280;64845;53.086;5.834;2023-06-26T10:01:17;101613.81;;;21.39;59.79
76114;BME280;64845;53.086;5.834;2023-06-26T10:03:43;101618.81;;;21.46;59.19
76114;BME280;64845;53.086;5.834;2023-06-26T10:06:10;101610.88;;;21.42;59.17
76114;BME280;64845;53.086;5.834;2023-06-26T10:08:38;101602.50;;;21.46;59.28
76114;BME280;64845;53.086;5.834;2023-06-26T10:11:04;101611.84;;;21.41;58.74
76114;BME280;64845;53.086;5.834;2023-06-26T10:13:36;101602.94;;;21.39;58.85
76114;BME280;64845;53.086;5.834;2023-06-26T10:16:05;101605.88;;;21.36;58.63
76114;BME280;64845;53.086;5.834;2023-06-26T10:18:33;101619.25;;;21.26;58.28
76114;BME280;64845;53.086;5.834;2023-06-26T10:21:01;101634.44;;;21.29;58.25
76114;BME280;64845;53.086;5.834;2023-06-26T10:23:30;101620.22;;;21.25;58.65
76114;BME280;64845;53.086;5.834;2023-06-26T10:25:58;101634.91;;;21.23;58.45
76114;BME280;64845;53.086;5.834;2023-06-26T10:28:27;101639.59;;;21.21;58.44
76114;BME280;64845;53.086;5.834;2023-06-26T10:30:54;101633.72;;;21.27;58.58
76114;BME280;64845;53.086;5.834;2023-06-26T10:33:20;101643.06;;;21.23;58.28
76114;BME280;64845;53.086;5.834;2023-06-26T10:35:45;101634.38;;;21.18;57.98
76114;BME280;64845;53.086;5.834;2023-06-26T10:38:11;101648.16;;;21.14;58.07
76114;BME280;64845;53.086;5.834;2023-06-26T10:40:45;101648.84;;;21.18;58.03
76114;BME280;64845;53.086;5.834;2023-06-26T10:43:12;101666.09;;;21.17;57.97
76114;BME280;64845;53.086;5.834;2023-06-26T10:45:49;101666.84;;;21.19;57.79
76114;BME280;64845;53.086;5.834;2023-06-26T10:48:19;101664.66;;;21.24;58.01
76114;BME280;64845;53.086;5.834;2023-06-26T10:50:49;101667.06;;;21.29;57.88
76114;BME280;64845;53.086;5.834;2023-06-26T10:53:22;101673.38;;;21.17;57.53
76114;BME280;64845;53.086;5.834;2023-06-26T10:56:03;101663.16;;;21.20;56.94
76114;BME280;64845;53.086;5.834;2023-06-26T11:01:20;101666.94;;;21.43;55.88
76114;BME280;64845;53.086;5.834;2023-06-26T11:04:06;101676.38;;;21.51;55.54
76114;BME280;64845;53.086;5.834;2023-06-26T11:06:33;101684.75;;;21.48;54.97
76114;BME280;64845;53.086;5.834;2023-06-26T11:09:08;101694.63;;;21.49;54.83
76114;BME280;64845;53.086;5.834;2023-06-26T11:14:17;101686.06;;;21.42;54.75
76114;BME280;64845;53.086;5.834;2023-06-26T11:16:43;101684.09;;;21.44;54.54
76114;BME280;64845;53.086;5.834;2023-06-26T11:19:09;101693.56;;;21.51;54.67
76114;BME280;64845;53.086;5.834;2023-06-26T11:21:37;101677.50;;;21.61;55.01
76114;BME280;64845;53.086;5.834;2023-06-26T11:24:04;101683.00;;;21.72;55.03
76114;BME280;64845;53.086;5.834;2023-06-26T11:26:31;101676.59;;;21.73;54.87
76114;BME280;64845;53.086;5.834;2023-06-26T11:29:02;101684.22;;;21.68;54.60
76114;BME280;64845;53.086;5.834;2023-06-26T11:31:32;101698.91;;;21.66;54.97
76114;BME280;64845;53.086;5.834;2023-06-26T11:34:00;101696.53;;;21.61;55.03
76114;BME280;64845;53.086;5.834;2023-06-26T11:36:26;101698.69;;;21.69;54.84
76114;BME280;64845;53.086;5.834;2023-06-26T11:38:56;101716.16;;;21.78;54.77
76114;BME280;64845;53.086;5.834;2023-06-26T11:41:23;101711.94;;;21.73;54.46
76114;BME280;64845;53.086;5.834;2023-06-26T11:43:49;101703.13;;;21.83;54.67
76114;BME280;64845;53.086;5.834;2023-06-26T11:46:16;101720.91;;;21.87;54.97
76114;BME280;64845;53.086;5.834;2023-06-26T11:48:43;101728.56;;;21.82;54.53
76114;BME280;64845;53.086;5.834;2023-06-26T11:51:08;101740.00;;;21.74;54.38
76114;BME280;64845;53.086;5.834;2023-06-26T11:53:39;101742.72;;;21.61;54.59
76114;BME280;64845;53.086;5.834;2023-06-26T11:56:14;101746.06;;;21.52;54.74
76114;BME280;64845;53.086;5.834;2023-06-26T11:58:55;101731.41;;;21.41;55.08
76114;BME280;64845;53.086;5.834;2023-06-26T12:01:21;101746.81;;;21.41;55.04
76114;BME280;64845;53.086;5.834;2023-06-26T12:03:48;101748.75;;;21.39;55.09
76114;BME280;64845;53.086;5.834;2023-06-26T12:06:14;101745.53;;;21.34;55.12
76114;BME280;64845;53.086;5.834;2023-06-26T12:08:40;101739.31;;;21.32;55.13
76114;BME280;64845;53.086;5.834;2023-06-26T12:11:06;101754.44;;;21.36;55.39
76114;BME280;64845;53.086;5.834;2023-06-26T12:13:32;101757.91;;;21.38;54.97
76114;BME280;64845;53.086;5.834;2023-06-26T12:15:58;101761.72;;;21.48;54.70
76114;BME280;64845;53.086;5.834;2023-06-26T12:18:23;101757.16;;;21.62;55.13
76114;BME280;64845;53.086;5.834;2023-06-26T12:20:51;101756.38;;;21.59;54.46
76114;BME280;64845;53.086;5.834;2023-06-26T12:23:16;101763.38;;;21.64;54.85
76114;BME280;64845;53.086;5.834;2023-06-26T12:25:42;101776.75;;;21.80;55.10
76114;BME280;64845;53.086;5.834;2023-06-26T12:28:16;101785.44;;;21.85;54.74
76114;BME280;64845;53.086;5.834;2023-06-26T12:30:45;101780.53;;;21.77;54.39
76114;BME280;64845;53.086;5.834;2023-06-26T12:33:14;101784.13;;;21.78;54.85
76114;BME280;64845;53.086;5.834;2023-06-26T12:35:41;101791.94;;;21.82;54.84
76114;BME280;64845;53.086;5.834;2023-06-26T12:38:08;101777.94;;;21.63;54.77
76114;BME280;64845;53.086;5.834;2023-06-26T12:40:44;101784.34;;;21.74;54.99
76114;BME280;64845;53.086;5.834;2023-06-26T12:43:11;101788.38;;;21.82;54.98
76114;BME280;64845;53.086;5.834;2023-06-26T12:45:40;101791.41;;;21.77;54.92
76114;BME280;64845;53.086;5.834;2023-06-26T12:48:12;101794.88;;;21.79;55.11
76114;BME280;64845;53.086;5.834;2023-06-26T12:50:44;101800.88;;;21.71;54.81
76114;BME280;64845;53.086;5.834;2023-06-26T12:53:13;101782.53;;;21.75;54.79
76114;BME280;64845;53.086;5.834;2023-06-26T12:55:38;101790.88;;;21.85;55.01
76114;BME280;64845;53.086;5.834;2023-06-26T12:58:04;101795.00;;;21.78;54.65
76114;BME280;64845;53.086;5.834;2023-06-26T13:00:29;101796.75;;;21.92;54.56
76114;BME280;64845;53.086;5.834;2023-06-26T13:02:57;101795.50;;;22.09;54.78
76114;BME280;64845;53.086;5.834;2023-06-26T13:05:23;101796.22;;;22.24;54.22